Terminal Aerodrome Forecast
Issued by NWS

Home | Current Version | Previous Version | Text Only | Print | Product List | Glossary On
Versions: 1 2 3 4 5 6 7 8 9 10
018
FTUS46 KMFR 252343
TAFRBG
TAF
KRBG 252343Z 2600/2624 19005KT 6SM -RA BKN025 OVC040
     FM260400 VRB03KT 5SM -RA BKN015 OVC025
     FM260900 35003KT 5SM RA BR SCT005 OVC015
     FM261400 35004KT 6SM -RA OVC015
     FM261900 32004KT P6SM -SHRA OVC015=

USA.gov is the U.S. government's official web portal to all federal, state and local government web resources and services.